createdAt,value
2022-11-16T00:40:50.796Z,2.70
2022-11-16T01:01:45.272Z,2.33
2022-11-16T01:02:47.160Z,3.08
2022-11-16T03:05:08.235Z,4.03
2022-11-16T03:21:14.733Z,3.67
2022-11-16T03:23:29.598Z,5.38
2022-11-16T04:58:29.531Z,5.00
2022-11-16T05:24:02.374Z,6.82
2022-11-16T05:44:01.469Z,8.52
2022-11-16T05:48:11.048Z,8.82
2022-11-16T05:57:40.647Z,7.90
2022-11-16T06:09:15.882Z,9.27
2022-11-16T06:10:17.878Z,9.07
2022-11-16T06:34:48.749Z,9.95
2022-11-16T06:35:51.092Z,11.75
2022-11-16T06:39:02.073Z,9.63
2022-11-16T06:42:22.040Z,9.95
2022-11-16T06:45:35.149Z,9.65
2022-11-16T06:46:37.284Z,10.57
2022-11-16T06:48:43.430Z,9.80
2022-11-16T06:50:55.986Z,9.88
2022-11-16T06:51:58.185Z,10.32
2022-11-16T06:53:00.944Z,9.27
2022-11-16T06:54:04.311Z,11.25
2022-11-16T06:56:15.100Z,8.93
2022-11-16T06:57:22.574Z,10.25
2022-11-16T07:00:29.495Z,8.95
2022-11-16T07:08:56.817Z,10.13
2022-11-16T07:10:03.453Z,9.95
2022-11-16T07:11:07.248Z,10.90
2022-11-16T07:12:09.475Z,10.35
2022-11-16T07:13:14.039Z,12.60
2022-11-16T07:14:15.920Z,11.05
2022-11-16T07:15:19.403Z,10.80
2022-11-16T07:16:22.826Z,10.82
2022-11-16T07:17:29.928Z,10.50
2022-11-16T07:18:34.405Z,11.30
2022-11-16T07:19:36.795Z,8.35
2022-11-16T07:20:39.189Z,10.32
2022-11-16T07:21:41.063Z,11.05
2022-11-16T07:22:48.092Z,10.77
2022-11-16T07:23:52.961Z,11.77
2022-11-16T07:24:56.227Z,11.13
2022-11-16T07:26:05.272Z,9.80
2022-11-16T07:27:22.171Z,11.60
2022-11-16T07:28:27.459Z,10.55
2022-11-16T07:29:30.759Z,11.05
2022-11-16T07:30:51.046Z,9.63
2022-11-16T07:32:00.126Z,11.80
2022-11-16T07:33:20.634Z,9.57
2022-11-16T07:34:40.871Z,11.02
2022-11-16T07:35:47.367Z,10.07
2022-11-16T07:36:49.235Z,10.90
2022-11-16T07:37:52.251Z,10.07
2022-11-16T07:38:54.327Z,9.43
2022-11-16T07:39:56.110Z,10.05
2022-11-16T07:40:59.545Z,9.68
2022-11-16T07:42:02.258Z,10.25
2022-11-16T07:43:35.158Z,9.38
2022-11-16T07:44:46.273Z,7.75
2022-11-16T07:45:49.033Z,9.48
2022-11-16T07:46:50.928Z,9.70
2022-11-16T07:47:53.445Z,9.88
2022-11-16T07:49:21.186Z,10.32
2022-11-16T07:50:29.827Z,10.75
2022-11-16T07:51:31.783Z,9.82
2022-11-16T07:52:46.588Z,10.77
2022-11-16T07:53:55.984Z,9.98
2022-11-16T07:54:58.378Z,10.43
2022-11-16T07:56:02.920Z,11.18
2022-11-16T07:57:06.458Z,11.38
2022-11-16T07:58:08.393Z,10.52
2022-11-16T07:59:10.459Z,11.48
2022-11-16T08:00:16.903Z,10.00
2022-11-16T08:01:25.692Z,9.48
2022-11-16T08:02:27.660Z,10.35
2022-11-16T08:03:31.211Z,10.02
2022-11-16T08:04:33.091Z,11.07
2022-11-16T08:05:34.894Z,10.40
2022-11-16T08:06:36.859Z,10.52
2022-11-16T08:07:38.675Z,10.38
2022-11-16T08:08:40.706Z,11.32
2022-11-16T08:09:43.122Z,10.55
2022-11-16T08:10:48.341Z,12.25
2022-11-16T08:11:51.363Z,10.55
2022-11-16T08:12:54.729Z,11.15
2022-11-16T08:13:58.226Z,11.57
2022-11-16T08:15:00.113Z,10.32
2022-11-16T08:16:02.609Z,11.40
2022-11-16T08:17:05.576Z,12.30
2022-11-16T08:18:07.500Z,10.65
2022-11-16T08:19:10.256Z,11.10
2022-11-16T08:20:12.651Z,11.60
2022-11-16T08:21:16.102Z,10.88
2022-11-16T08:22:19.389Z,10.55
2022-11-16T08:23:21.670Z,11.43
2022-11-16T08:24:23.686Z,11.93
2022-11-16T08:25:25.592Z,11.77
2022-11-16T08:26:27.739Z,10.05
2022-11-16T08:27:35.091Z,10.70
2022-11-16T08:28:37.662Z,11.80
2022-11-16T08:29:40.078Z,11.98
2022-11-16T08:30:44.956Z,12.70
2022-11-16T08:31:49.174Z,12.45
2022-11-16T08:32:54.119Z,11.35
2022-11-16T08:33:56.728Z,12.38
2022-11-16T08:34:58.674Z,11.15
2022-11-16T08:36:06.181Z,11.55
2022-11-16T08:38:18.585Z,11.27
2022-11-16T08:39:20.497Z,10.95
2022-11-16T08:40:22.315Z,12.05
2022-11-16T08:41:24.121Z,12.48
2022-11-16T08:42:26.000Z,11.25
2022-11-16T08:43:30.425Z,11.43
2022-11-16T08:44:32.214Z,12.35
2022-11-16T08:45:37.986Z,11.30
2022-11-16T08:46:40.137Z,11.35
2022-11-16T08:48:03.130Z,10.90
2022-11-16T08:49:05.776Z,11.98
2022-11-16T08:50:07.780Z,10.88
2022-11-16T08:51:19.504Z,12.63
2022-11-16T08:52:27.978Z,11.07
2022-11-16T08:53:30.806Z,11.57
2022-11-16T08:54:32.667Z,11.55
2022-11-16T08:55:34.563Z,11.20
2022-11-16T08:56:36.411Z,10.32
2022-11-16T08:57:39.126Z,11.73
2022-11-16T08:58:46.743Z,11.95
2022-11-16T08:59:49.307Z,12.35
2022-11-16T09:00:52.088Z,10.68
2022-11-16T09:01:54.000Z,13.60
2022-11-16T09:02:56.237Z,11.60
2022-11-16T09:03:58.392Z,11.38
2022-11-16T09:05:00.268Z,11.43
2022-11-16T09:06:02.088Z,13.65
2022-11-16T09:07:03.955Z,12.20
2022-11-16T09:08:05.856Z,11.63
2022-11-16T09:09:07.924Z,11.57
2022-11-16T09:10:10.292Z,12.85
2022-11-16T09:11:16.975Z,11.00
2022-11-16T09:12:18.814Z,9.85
2022-11-16T09:13:20.614Z,9.15
2022-11-16T09:14:22.406Z,13.00
2022-11-16T09:15:24.224Z,10.98
2022-11-16T09:16:27.837Z,10.30
2022-11-16T09:17:29.868Z,12.40
2022-11-16T09:18:32.418Z,10.82
2022-11-16T09:19:34.462Z,11.77
2022-11-16T09:20:36.292Z,12.13
2022-11-16T09:21:38.150Z,13.15
2022-11-16T09:22:39.987Z,11.23
2022-11-16T09:23:41.867Z,11.70
2022-11-16T09:24:43.640Z,10.63
2022-11-16T09:25:48.245Z,11.45
2022-11-16T09:26:50.035Z,11.00
2022-11-16T09:27:54.061Z,11.70
2022-11-16T09:29:00.089Z,11.88
2022-11-16T09:30:02.176Z,10.90
2022-11-16T09:31:05.994Z,10.90
2022-11-16T09:32:07.908Z,11.30
2022-11-16T09:33:09.839Z,12.02
2022-11-16T09:34:11.715Z,12.07
2022-11-16T09:35:13.502Z,11.80
2022-11-16T09:36:15.761Z,11.48
2022-11-16T09:37:17.559Z,11.25
2022-11-16T09:38:26.945Z,12.65
2022-11-16T09:39:41.152Z,11.52
2022-11-16T09:40:45.193Z,11.00
2022-11-16T09:41:47.376Z,11.82
2022-11-16T09:42:49.232Z,10.32
2022-11-16T09:44:03.119Z,11.65
2022-11-16T09:45:07.702Z,11.60
2022-11-16T09:46:27.057Z,12.73
2022-11-16T09:47:40.341Z,11.63
2022-11-16T09:48:42.243Z,10.50
2022-11-16T09:49:47.818Z,13.05
2022-11-16T09:50:53.084Z,11.23
2022-11-16T09:51:57.684Z,11.00
2022-11-16T09:53:02.416Z,12.45
2022-11-16T09:54:06.214Z,10.93
2022-11-16T09:55:22.078Z,11.27
2022-11-16T09:56:25.509Z,10.85
2022-11-16T09:57:31.572Z,10.00
2022-11-16T09:58:51.677Z,10.25
2022-11-16T10:00:00.799Z,12.10
2022-11-16T10:01:07.798Z,11.40
2022-11-16T10:02:18.804Z,10.13
2022-11-16T10:03:20.655Z,10.55
2022-11-16T10:04:38.445Z,10.50
2022-11-16T10:05:40.209Z,10.52
2022-11-16T10:06:49.444Z,9.45
2022-11-16T10:07:54.913Z,10.43
2022-11-16T10:08:59.092Z,10.23
2022-11-16T10:10:00.996Z,12.45
2022-11-16T10:11:02.805Z,10.32
2022-11-16T10:12:15.381Z,10.95
2022-11-16T10:13:36.053Z,10.95
2022-11-16T10:14:38.290Z,11.07
2022-11-16T10:15:48.233Z,10.43
2022-11-16T10:17:08.719Z,9.32
2022-11-16T10:18:13.662Z,11.07
2022-11-16T10:19:26.910Z,10.93
2022-11-16T10:20:37.691Z,9.10
2022-11-16T10:22:45.850Z,10.48
2022-11-16T10:24:10.742Z,11.30
2022-11-16T10:25:16.803Z,9.98
2022-11-16T10:26:27.139Z,10.55
2022-11-16T10:27:52.058Z,10.50
2022-11-16T10:29:06.610Z,9.55
2022-11-16T10:30:18.632Z,10.50
2022-11-16T10:31:38.830Z,10.10
2022-11-16T10:32:49.810Z,9.18
2022-11-16T10:33:54.398Z,10.50
2022-11-16T10:35:12.091Z,11.25
2022-11-16T10:36:15.117Z,10.70
2022-11-16T10:37:16.951Z,10.75
2022-11-16T10:38:27.479Z,12.02
2022-11-16T10:39:31.109Z,12.43
2022-11-16T10:40:36.864Z,11.55
2022-11-16T10:41:46.279Z,10.02
2022-11-16T10:42:56.842Z,11.50
2022-11-16T10:43:59.355Z,10.95
2022-11-16T10:45:24.575Z,10.65
2022-11-16T10:46:33.787Z,9.63
2022-11-16T10:47:44.826Z,10.73
2022-11-16T10:49:07.935Z,10.75
2022-11-16T10:50:31.719Z,10.55
2022-11-16T10:51:33.567Z,10.82
2022-11-16T10:52:35.415Z,10.95
2022-11-16T10:53:38.630Z,11.10
2022-11-16T10:54:44.282Z,11.55
2022-11-16T10:55:50.471Z,11.40
2022-11-16T10:56:56.828Z,10.55
2022-11-16T10:58:02.701Z,11.13
2022-11-16T10:59:08.496Z,11.32
2022-11-16T11:00:12.874Z,10.82
2022-11-16T11:01:28.826Z,10.65
2022-11-16T11:02:34.805Z,11.27
2022-11-16T11:03:36.923Z,11.45
2022-11-16T11:04:39.108Z,11.18
2022-11-16T11:05:48.334Z,11.77
2022-11-16T11:06:51.804Z,11.18
2022-11-16T11:08:01.803Z,12.32
2022-11-16T11:09:26.665Z,11.43
2022-11-16T11:10:33.405Z,10.45
2022-11-16T11:11:54.012Z,10.88
2022-11-16T11:13:08.153Z,11.77
2022-11-16T11:14:11.566Z,10.38
2022-11-16T11:15:25.540Z,11.32
2022-11-16T11:16:28.225Z,10.55
2022-11-16T11:17:31.404Z,9.10
2022-11-16T11:18:33.224Z,10.23
2022-11-16T11:19:35.117Z,12.10
2022-11-16T11:20:44.299Z,11.40
2022-11-16T11:21:47.033Z,12.30
2022-11-16T11:22:53.890Z,10.60
2022-11-16T11:24:06.166Z,10.75
2022-11-16T11:25:23.955Z,10.98
2022-11-16T11:26:36.193Z,11.38
2022-11-16T11:27:38.699Z,10.43
2022-11-16T11:28:46.378Z,11.20
2022-11-16T11:29:51.169Z,10.30
2022-11-16T11:30:58.979Z,10.30
2022-11-16T11:32:04.291Z,10.95
2022-11-16T11:33:11.153Z,10.15
2022-11-16T11:34:21.364Z,10.02
2022-11-16T11:35:30.386Z,10.55
2022-11-16T11:36:41.961Z,10.73
2022-11-16T11:37:43.789Z,10.65
2022-11-16T11:39:00.799Z,10.52
2022-11-16T11:40:21.552Z,10.60
2022-11-16T11:41:23.828Z,10.45
2022-11-16T11:42:26.389Z,11.77
2022-11-16T11:43:29.003Z,11.85
2022-11-16T11:44:42.501Z,11.40
2022-11-16T11:46:07.450Z,10.00
2022-11-16T11:47:55.646Z,10.27
2022-11-16T11:48:47.926Z,10.07
2022-11-16T11:49:52.279Z,10.50
2022-11-16T11:50:55.247Z,10.60
2022-11-16T11:52:00.182Z,10.75
2022-11-16T11:53:02.068Z,9.10
2022-11-16T11:54:04.932Z,9.80
2022-11-16T11:55:07.570Z,10.15
2022-11-16T11:56:11.103Z,10.18
2022-11-16T11:57:22.123Z,10.93
2022-11-16T11:58:28.227Z,9.60
2022-11-16T11:59:30.367Z,10.38
2022-11-16T12:00:38.055Z,8.82
2022-11-16T12:01:52.703Z,10.43
2022-11-16T12:03:23.536Z,10.43
2022-11-16T12:04:31.383Z,8.75
2022-11-16T12:06:02.192Z,10.02
2022-11-16T12:07:22.913Z,9.90
2022-11-16T12:08:43.323Z,8.23
2022-11-16T12:10:03.916Z,8.55
2022-11-16T12:11:11.660Z,8.70
2022-11-16T12:12:16.588Z,9.98
2022-11-16T12:13:31.638Z,10.65
2022-11-16T12:14:52.431Z,10.73
2022-11-16T12:16:00.353Z,10.55
2022-11-16T12:17:20.743Z,10.18
2022-11-16T12:18:45.553Z,10.88
2022-11-16T12:20:06.139Z,9.55
2022-11-16T12:21:07.994Z,9.60
2022-11-16T12:22:09.778Z,10.30
2022-11-16T12:23:21.835Z,10.93
2022-11-16T12:24:31.675Z,10.05
2022-11-16T12:25:33.550Z,11.05
2022-11-16T12:26:42.849Z,12.52
2022-11-16T12:27:44.661Z,11.32
2022-11-16T12:29:05.052Z,9.77
2022-11-16T12:30:06.937Z,10.40
2022-11-16T12:31:23.829Z,10.57
2022-11-16T12:32:52.185Z,11.60
2022-11-16T12:34:19.237Z,10.70
2022-11-16T12:35:21.079Z,9.50
2022-11-16T12:36:37.819Z,11.18
2022-11-16T12:37:49.641Z,10.55
2022-11-16T12:39:10.406Z,10.82
2022-11-16T12:40:21.423Z,11.30
2022-11-16T12:41:26.289Z,12.00
2022-11-16T12:42:34.014Z,10.38
2022-11-16T12:43:54.305Z,9.15
2022-11-16T12:44:56.053Z,9.32
2022-11-16T12:45:57.835Z,11.35
2022-11-16T12:46:59.592Z,11.77
2022-11-16T12:48:04.334Z,10.68
2022-11-16T12:49:18.533Z,11.90
2022-11-16T12:50:26.472Z,11.50
2022-11-16T12:51:40.662Z,11.60
2022-11-16T12:52:42.447Z,11.13
2022-11-16T12:54:12.216Z,10.55
2022-11-16T12:55:28.511Z,11.10
2022-11-16T12:56:49.391Z,10.93
2022-11-16T12:57:51.272Z,12.20
2022-11-16T12:59:01.863Z,12.43
2022-11-16T13:00:11.152Z,11.93
2022-11-16T13:01:32.033Z,12.38
2022-11-16T13:02:52.799Z,11.90
2022-11-16T13:03:57.225Z,10.30
2022-11-16T13:05:20.191Z,10.52
2022-11-16T13:06:27.866Z,11.43
2022-11-16T13:07:58.810Z,11.63
2022-11-16T13:09:03.151Z,12.18
2022-11-16T13:10:06.978Z,13.10
2022-11-16T13:11:14.856Z,12.20
2022-11-16T13:12:18.491Z,12.15
2022-11-16T13:13:40.872Z,11.43
2022-11-16T13:14:49.947Z,11.90
2022-11-16T13:15:52.702Z,12.80
2022-11-16T13:16:54.986Z,12.07
2022-11-16T13:17:58.811Z,13.48
2022-11-16T13:19:02.923Z,12.98
2022-11-16T13:20:15.053Z,10.55
2022-11-16T13:21:21.936Z,14.23
2022-11-16T13:22:27.863Z,12.77
2022-11-16T13:23:33.169Z,13.10
2022-11-16T13:24:35.225Z,13.43
2022-11-16T13:26:10.446Z,12.32
2022-11-16T13:27:12.324Z,12.85
2022-11-16T13:28:14.131Z,13.63
2022-11-16T13:29:15.942Z,11.45
2022-11-16T13:30:17.784Z,13.57
2022-11-16T13:31:33.331Z,14.48
2022-11-16T13:32:49.415Z,12.63
2022-11-16T13:33:59.708Z,12.27
2022-11-16T13:35:04.251Z,14.02
2022-11-16T13:36:24.492Z,14.05
2022-11-16T13:37:52.733Z,12.85
2022-11-16T13:38:54.728Z,12.52
2022-11-16T13:39:59.507Z,14.45
2022-11-16T13:41:20.270Z,13.73
2022-11-16T13:42:22.072Z,12.60
2022-11-16T13:43:24.014Z,12.50
2022-11-16T13:44:27.764Z,12.88
2022-11-16T13:45:32.953Z,13.30
2022-11-16T13:46:55.808Z,11.93
2022-11-16T13:47:58.561Z,12.48
2022-11-16T13:49:00.417Z,15.07
2022-11-16T13:50:03.139Z,14.73
2022-11-16T13:51:07.038Z,12.48
2022-11-16T13:52:35.649Z,15.50
2022-11-16T13:55:16.083Z,13.88
2022-11-16T13:56:20.906Z,13.82
2022-11-16T13:57:38.177Z,11.35
2022-11-16T13:58:44.770Z,13.52
2022-11-16T13:59:48.382Z,13.70
2022-11-16T14:01:01.398Z,13.15
2022-11-16T14:02:23.186Z,13.45
2022-11-16T14:03:26.720Z,14.07
2022-11-16T14:04:35.901Z,12.93
2022-11-16T14:05:39.634Z,12.30
2022-11-16T14:06:44.485Z,13.82
2022-11-16T14:07:50.567Z,13.40
2022-11-16T14:08:55.303Z,13.65
2022-11-16T14:09:57.169Z,12.07
2022-11-16T14:10:59.660Z,12.63
2022-11-16T14:12:21.591Z,12.85
2022-11-16T14:13:45.623Z,13.68
2022-11-16T14:15:06.412Z,13.02
2022-11-16T14:16:17.748Z,11.50
2022-11-16T14:17:45.805Z,12.60
2022-11-16T14:18:58.712Z,13.55
2022-11-16T14:20:00.551Z,12.95
2022-11-16T14:21:31.882Z,12.90
2022-11-16T14:22:44.903Z,12.32
2022-11-16T14:23:52.473Z,14.63
2022-11-16T14:24:57.255Z,12.80
2022-11-16T14:26:18.626Z,13.52
2022-11-16T14:27:34.092Z,13.20
2022-11-16T14:28:56.186Z,11.57
2022-11-16T14:30:16.825Z,12.85
2022-11-16T14:31:25.713Z,12.65
2022-11-16T14:32:31.133Z,13.88
2022-11-16T14:33:34.787Z,13.10
2022-11-16T14:34:41.351Z,12.20
2022-11-16T14:35:50.155Z,12.55
2022-11-16T14:36:52.546Z,12.52
2022-11-16T14:37:58.622Z,12.15
2022-11-16T14:39:14.466Z,13.48
2022-11-16T14:40:18.421Z,12.30
2022-11-16T14:41:21.421Z,13.10
2022-11-16T14:42:25.140Z,13.40
2022-11-16T14:43:29.905Z,12.35
2022-11-16T14:44:33.550Z,12.35
2022-11-16T14:45:37.210Z,12.25
2022-11-16T14:46:39.012Z,12.43
2022-11-16T14:47:40.887Z,12.57
2022-11-16T14:48:46.578Z,12.30
2022-11-16T14:49:48.467Z,13.40
2022-11-16T14:50:58.856Z,12.00
2022-11-16T14:52:01.540Z,13.13
2022-11-16T14:53:05.286Z,12.88
2022-11-16T14:54:16.521Z,11.93
2022-11-16T14:55:19.785Z,10.27
2022-11-16T14:56:21.735Z,12.70
2022-11-16T14:57:23.865Z,11.38
2022-11-16T14:58:25.740Z,10.93
2022-11-16T14:59:28.309Z,11.55
2022-11-16T15:00:30.413Z,11.02
2022-11-16T15:01:38.490Z,10.75
2022-11-16T15:02:40.783Z,11.30
2022-11-16T15:03:48.516Z,11.23
2022-11-16T15:04:51.421Z,12.02
2022-11-16T15:05:56.560Z,12.27
2022-11-16T15:07:01.459Z,11.13
2022-11-16T15:08:06.413Z,10.48
2022-11-16T15:09:13.628Z,10.98
2022-11-16T15:10:17.771Z,11.10
2022-11-16T15:11:47.283Z,12.18
2022-11-16T15:12:53.298Z,10.02
2022-11-16T15:13:55.649Z,10.68
2022-11-16T15:15:00.529Z,9.93
2022-11-16T15:16:09.091Z,10.93
2022-11-16T15:17:16.300Z,11.25
2022-11-16T15:18:20.512Z,11.75
2022-11-16T15:19:23.205Z,9.35
2022-11-16T15:20:26.350Z,11.38
2022-11-16T15:21:29.176Z,11.65
2022-11-16T15:22:32.475Z,11.20
2022-11-16T15:23:48.990Z,9.43
2022-11-16T15:25:04.659Z,9.73
2022-11-16T15:26:06.498Z,10.50
2022-11-16T15:27:08.290Z,11.80
2022-11-16T15:28:24.167Z,11.45
2022-11-16T15:29:25.957Z,11.85
2022-11-16T15:30:29.666Z,10.93
2022-11-16T15:31:31.545Z,9.57
2022-11-16T15:32:38.098Z,10.63
2022-11-16T15:33:41.688Z,10.23
2022-11-16T15:34:46.616Z,11.07
2022-11-16T15:35:48.533Z,10.65
2022-11-16T15:36:50.411Z,11.90
2022-11-16T15:38:11.100Z,10.70
2022-11-16T15:39:18.810Z,11.00
2022-11-16T15:40:20.623Z,10.13
2022-11-16T15:41:23.506Z,11.52
2022-11-16T15:42:26.774Z,12.00
2022-11-16T15:43:29.748Z,10.25
2022-11-16T15:44:32.216Z,11.15
2022-11-16T15:45:34.159Z,11.13
2022-11-16T15:46:36.088Z,10.25
2022-11-16T15:47:38.147Z,9.35
2022-11-16T15:48:40.323Z,10.45
2022-11-16T15:49:42.760Z,10.77
2022-11-16T15:51:01.466Z,10.50
2022-11-16T15:52:06.442Z,9.57
2022-11-16T15:53:28.184Z,10.82
2022-11-16T15:54:53.721Z,10.80
2022-11-16T15:55:55.659Z,10.30
2022-11-16T15:57:07.905Z,11.20
2022-11-16T15:58:26.519Z,10.07
2022-11-16T15:59:32.195Z,10.07
2022-11-16T16:00:37.385Z,10.48
2022-11-16T16:01:42.783Z,9.32
2022-11-16T16:02:44.811Z,9.85
2022-11-16T16:03:57.889Z,10.00
2022-11-16T16:05:00.117Z,9.60
2022-11-16T16:06:03.712Z,9.55
2022-11-16T16:07:05.733Z,10.07
2022-11-16T16:08:24.060Z,9.50
2022-11-16T16:09:27.567Z,9.23
2022-11-16T16:10:29.658Z,9.90
2022-11-16T16:11:31.455Z,10.70
2022-11-16T16:12:33.257Z,10.05
2022-11-16T16:13:42.597Z,10.30
2022-11-16T16:14:44.541Z,9.57
2022-11-16T16:15:46.354Z,10.70
2022-11-16T16:16:52.669Z,9.55
2022-11-16T16:17:54.579Z,8.77
2022-11-16T16:18:58.182Z,10.15
2022-11-16T16:20:01.076Z,9.20
2022-11-16T16:21:03.022Z,10.90
2022-11-16T16:22:06.196Z,9.15
2022-11-16T16:23:09.313Z,9.02
2022-11-16T16:24:31.141Z,9.77
2022-11-16T16:25:34.281Z,10.73
2022-11-16T16:26:36.073Z,9.93
2022-11-16T16:27:39.527Z,8.70
2022-11-16T16:28:41.630Z,10.18
2022-11-16T16:29:44.146Z,10.30
2022-11-16T16:30:45.930Z,10.45
2022-11-16T16:31:48.008Z,10.75
2022-11-16T16:32:50.507Z,10.70
2022-11-16T16:33:52.461Z,10.25
2022-11-16T16:34:58.297Z,9.32
2022-11-16T16:36:00.232Z,10.63
2022-11-16T16:37:02.018Z,9.25
2022-11-16T16:38:12.486Z,10.65
2022-11-16T16:39:14.255Z,9.52
2022-11-16T16:40:19.428Z,10.70
2022-11-16T16:41:24.486Z,9.32
2022-11-16T16:42:26.690Z,11.32
2022-11-16T16:43:28.856Z,9.20
2022-11-16T16:44:30.675Z,11.43
2022-11-16T16:45:37.287Z,10.30
2022-11-16T16:46:39.376Z,10.30
2022-11-16T16:47:41.196Z,11.38
2022-11-16T16:48:44.741Z,8.80
2022-11-16T16:49:47.152Z,11.68
2022-11-16T16:50:49.002Z,9.60
2022-11-16T16:51:50.784Z,8.82
2022-11-16T16:52:52.577Z,9.43
2022-11-16T16:53:54.405Z,8.50
2022-11-16T16:54:56.259Z,9.90
2022-11-16T16:55:58.095Z,8.85
2022-11-16T16:57:01.404Z,10.55
2022-11-16T16:58:03.299Z,8.80
2022-11-16T16:59:05.083Z,11.40
2022-11-16T17:00:07.282Z,9.75
2022-11-16T17:01:10.482Z,9.13
2022-11-16T17:02:12.665Z,9.70
2022-11-16T17:03:14.613Z,8.93
2022-11-16T17:04:16.416Z,11.38
2022-11-16T17:05:18.251Z,9.95
2022-11-16T17:06:20.147Z,9.38
2022-11-16T17:07:22.267Z,10.32
2022-11-16T17:08:24.162Z,9.45
2022-11-16T17:09:25.934Z,7.63
2022-11-16T17:10:27.819Z,10.13
2022-11-16T17:11:29.807Z,9.90
2022-11-16T17:12:31.667Z,10.43
2022-11-16T17:13:33.826Z,10.15
2022-11-16T17:14:35.857Z,10.27
2022-11-16T17:15:37.785Z,11.07
2022-11-16T17:16:39.642Z,9.90
2022-11-16T17:17:42.849Z,7.75
2022-11-16T17:18:44.741Z,9.07
2022-11-16T17:19:46.587Z,9.25
2022-11-16T17:20:48.415Z,7.65
2022-11-16T17:21:53.420Z,8.38
2022-11-16T17:22:55.633Z,9.27
2022-11-16T17:23:57.653Z,8.40
2022-11-16T17:24:59.997Z,6.88
2022-11-16T17:26:05.631Z,7.68
2022-11-16T17:27:07.458Z,8.25
2022-11-16T17:28:09.556Z,7.85
2022-11-16T17:29:11.367Z,9.05
2022-11-16T17:30:13.490Z,7.55
2022-11-16T17:31:17.402Z,9.05
2022-11-16T17:32:19.189Z,7.95
2022-11-16T17:33:20.970Z,8.60
2022-11-16T17:34:22.802Z,8.23
2022-11-16T17:35:24.683Z,8.63
2022-11-16T17:36:26.483Z,7.88
2022-11-16T17:37:28.316Z,8.35
2022-11-16T17:38:30.855Z,8.32
2022-11-16T17:39:32.803Z,7.82
2022-11-16T17:40:34.679Z,7.90
2022-11-16T17:41:36.848Z,8.35
2022-11-16T17:42:38.669Z,7.88
2022-11-16T17:43:41.108Z,7.80
2022-11-16T17:44:42.884Z,8.30
2022-11-16T17:45:44.697Z,7.57
2022-11-16T17:46:46.631Z,8.30
2022-11-16T17:47:48.497Z,8.95
2022-11-16T17:48:50.595Z,9.63
2022-11-16T17:49:52.929Z,7.03
2022-11-16T17:50:54.794Z,8.50
2022-11-16T17:51:56.694Z,9.25
2022-11-16T17:52:58.511Z,8.80
2022-11-16T17:54:00.548Z,8.00
2022-11-16T17:55:02.332Z,8.45
2022-11-16T17:56:04.477Z,8.55
2022-11-16T17:57:06.279Z,8.25
2022-11-16T17:58:08.043Z,8.95
2022-11-16T17:59:09.898Z,8.77
2022-11-16T18:00:12.034Z,8.43
2022-11-16T18:01:14.217Z,7.25
2022-11-16T18:02:16.164Z,9.55
2022-11-16T18:03:17.995Z,8.40
2022-11-16T18:04:19.879Z,7.35
2022-11-16T18:05:21.744Z,9.05
2022-11-16T18:06:25.041Z,8.07
2022-11-16T18:07:27.334Z,9.82
2022-11-16T18:08:30.080Z,7.85
2022-11-16T18:09:31.902Z,8.82
2022-11-16T18:10:37.052Z,10.07
2022-11-16T18:11:39.725Z,8.27
2022-11-16T18:12:41.503Z,9.27
2022-11-16T18:13:43.705Z,7.72
2022-11-16T18:15:06.297Z,9.10
2022-11-16T18:16:17.600Z,8.05
2022-11-16T18:17:19.447Z,8.48
2022-11-16T18:18:21.277Z,8.45
2022-11-16T18:19:23.111Z,9.95
2022-11-16T18:20:24.992Z,8.88
2022-11-16T18:21:26.830Z,9.93
2022-11-16T18:22:28.715Z,9.45
2022-11-16T18:23:30.952Z,8.45
2022-11-16T18:24:32.847Z,9.10
2022-11-16T18:25:36.674Z,8.57
2022-11-16T18:26:39.048Z,9.75
2022-11-16T18:27:40.858Z,11.02
2022-11-16T18:28:46.122Z,9.60
2022-11-16T18:29:48.062Z,9.38
2022-11-16T18:30:49.925Z,8.70
2022-11-16T18:31:51.717Z,8.77
2022-11-16T18:32:53.573Z,8.75
2022-11-16T18:33:55.482Z,9.90
2022-11-16T18:34:57.278Z,10.13
2022-11-16T18:35:59.403Z,10.18
2022-11-16T18:37:01.216Z,8.23
2022-11-16T18:38:03.488Z,8.05
2022-11-16T18:39:05.347Z,7.57
2022-11-16T18:40:07.553Z,8.30
2022-11-16T18:41:12.212Z,8.75
2022-11-16T18:42:14.098Z,8.85
2022-11-16T18:43:15.890Z,9.02
2022-11-16T18:44:17.723Z,7.68
2022-11-16T18:45:20.016Z,10.18
2022-11-16T18:46:23.728Z,8.95
2022-11-16T18:47:25.503Z,7.90
2022-11-16T18:48:27.345Z,8.65
2022-11-16T18:49:29.191Z,9.35
2022-11-16T18:50:30.990Z,8.27
2022-11-16T18:51:33.171Z,8.80
2022-11-16T18:52:34.945Z,8.75
2022-11-16T18:53:37.302Z,8.80
2022-11-16T18:54:39.273Z,8.90
2022-11-16T18:55:41.181Z,8.45
2022-11-16T18:56:43.037Z,8.07
2022-11-16T18:57:44.842Z,7.47
2022-11-16T18:58:51.530Z,7.68
2022-11-16T18:59:53.980Z,9.00
2022-11-16T19:01:00.769Z,8.65
2022-11-16T19:02:02.570Z,7.90
2022-11-16T19:03:09.902Z,8.70
2022-11-16T19:04:12.946Z,6.93
2022-11-16T19:05:14.798Z,8.20
2022-11-16T19:06:17.900Z,8.02
2022-11-16T19:07:20.133Z,7.93
2022-11-16T19:08:21.966Z,6.05
2022-11-16T19:09:23.746Z,6.35
2022-11-16T19:10:25.552Z,6.18
2022-11-16T19:11:28.074Z,8.48
2022-11-16T19:12:29.865Z,7.40
2022-11-16T19:13:32.153Z,8.68
2022-11-16T19:14:34.268Z,7.88
2022-11-16T19:15:36.096Z,7.75
2022-11-16T19:16:41.857Z,7.43
2022-11-16T19:18:06.765Z,7.00
2022-11-16T19:19:09.566Z,6.93
2022-11-16T19:20:11.687Z,6.72
2022-11-16T19:21:14.655Z,7.65
2022-11-16T19:22:16.458Z,7.32
2022-11-16T19:23:18.270Z,6.90
2022-11-16T19:24:20.047Z,7.25
2022-11-16T19:25:21.893Z,6.85
2022-11-16T19:26:25.568Z,6.80
2022-11-16T19:27:27.382Z,7.25
2022-11-16T19:28:29.661Z,7.35
2022-11-16T19:29:31.475Z,6.57
2022-11-16T19:30:33.355Z,7.00
2022-11-16T19:31:35.272Z,6.03
2022-11-16T19:32:37.064Z,6.20
2022-11-16T19:33:39.262Z,5.47
2022-11-16T19:34:41.104Z,7.13
2022-11-16T19:35:42.929Z,6.18
2022-11-16T19:36:44.731Z,5.97
2022-11-16T19:37:46.611Z,7.30
2022-11-16T19:38:48.823Z,6.50
2022-11-16T19:39:50.667Z,7.25
2022-11-16T19:40:52.439Z,6.25
2022-11-16T19:41:54.227Z,6.05
2022-11-16T19:42:56.003Z,6.80
2022-11-16T19:43:59.901Z,5.65
2022-11-16T19:45:01.878Z,4.80
2022-11-16T19:46:08.166Z,6.10
2022-11-16T19:47:10.000Z,5.45
2022-11-16T19:48:11.836Z,6.85
2022-11-16T19:49:20.005Z,6.60
2022-11-16T19:50:24.105Z,4.72
2022-11-16T19:51:27.354Z,6.45
2022-11-16T19:52:29.212Z,5.40
2022-11-16T19:53:32.474Z,6.07
2022-11-16T19:54:34.538Z,5.47
2022-11-16T19:55:36.382Z,5.88
2022-11-16T19:56:38.159Z,5.13
2022-11-16T19:57:39.969Z,5.63
2022-11-16T19:58:42.729Z,5.97
2022-11-16T19:59:44.580Z,6.53
2022-11-16T20:00:46.471Z,5.50
2022-11-16T20:01:48.454Z,6.65
2022-11-16T20:02:54.985Z,6.78
2022-11-16T20:03:57.833Z,5.63
2022-11-16T20:04:59.779Z,6.30
2022-11-16T20:06:05.939Z,5.18
2022-11-16T20:07:07.831Z,5.15
2022-11-16T20:08:10.428Z,5.45
2022-11-16T20:09:12.523Z,4.25
2022-11-16T20:10:14.346Z,4.63
2022-11-16T20:11:20.481Z,5.95
2022-11-16T20:12:22.364Z,4.40
2022-11-16T20:13:24.183Z,4.78
2022-11-16T20:14:26.064Z,5.22
2022-11-16T20:15:27.951Z,4.70
2022-11-16T20:16:36.986Z,4.70
2022-11-16T20:17:40.095Z,5.28
2022-11-16T20:18:42.795Z,5.40
2022-11-16T20:19:44.601Z,5.53
2022-11-16T20:20:46.366Z,4.65
2022-11-16T20:21:48.190Z,4.50
2022-11-16T20:22:50.749Z,4.63
2022-11-16T20:23:53.105Z,5.07
2022-11-16T20:24:54.964Z,5.22
2022-11-16T20:25:56.934Z,4.85
2022-11-16T20:26:58.723Z,5.00
2022-11-16T20:28:00.576Z,4.10
2022-11-16T20:29:02.969Z,4.95
2022-11-16T20:30:09.278Z,5.82
2022-11-16T20:31:15.474Z,5.10
2022-11-16T20:32:17.308Z,4.38
2022-11-16T20:33:19.125Z,4.03
2022-11-16T20:34:22.134Z,4.15
2022-11-16T20:35:23.981Z,5.25
2022-11-16T20:36:26.748Z,4.38
2022-11-16T20:37:28.536Z,4.55
2022-11-16T20:38:32.161Z,4.20
2022-11-16T20:39:33.961Z,5.00
2022-11-16T20:40:35.948Z,4.15
2022-11-16T20:41:37.724Z,4.63
2022-11-16T20:42:39.493Z,4.82
2022-11-16T20:43:42.059Z,4.65
2022-11-16T20:44:43.899Z,4.38
2022-11-16T20:45:45.740Z,5.15
2022-11-16T20:46:48.138Z,4.43
2022-11-16T20:47:49.932Z,4.53
2022-11-16T20:48:51.803Z,4.95
2022-11-16T20:49:53.591Z,4.45
2022-11-16T20:50:55.385Z,4.47
2022-11-16T20:51:57.250Z,4.30
2022-11-16T20:52:59.092Z,5.07
2022-11-16T20:54:00.938Z,4.55
2022-11-16T20:55:02.784Z,4.45
2022-11-16T20:56:04.824Z,3.88
2022-11-16T20:57:06.755Z,3.75
2022-11-16T20:58:08.573Z,4.63
2022-11-16T20:59:10.477Z,3.92
2022-11-16T21:00:12.949Z,4.88
2022-11-16T21:01:17.586Z,3.97
2022-11-16T21:02:19.530Z,4.18
2022-11-16T21:03:21.313Z,3.38